Time;durP1;ratioP1;P1;durP2;ratioP2;P2;SDS_P1;SDS_P2;PMS_P1;PMS_P2;Temp;Humidity;BMP_temperature;BMP_pressure;BME280_temperature;BME280_humidity;BME280_pressure;Samples;Min_cycle;Max_cycle;Signal;HPM_P1;HPM_P2
2023/02/15 00:01:49;;;;;;;0.30;0.30;;;3.30;66.80;;;;;;5033307;28;20930;-68
2023/02/15 00:04:19;;;;;;;0.40;0.40;;;3.30;67.60;;;;;;5032067;28;20669;-68
2023/02/15 00:06:45;;;;;;;0.40;0.40;;;3.30;68.40;;;;;;5033543;28;20556;-68
2023/02/15 00:09:12;;;;;;;2.30;2.20;;;3.30;68.30;;;;;;5033489;28;20254;-68
2023/02/15 00:11:40;;;;;;;0.30;0.30;;;3.30;68.30;;;;;;5033373;28;20210;-67
2023/02/15 00:14:10;;;;;;;0.40;0.40;;;3.30;67.80;;;;;;5033302;28;20572;-68
2023/02/15 00:16:37;;;;;;;0.30;0.30;;;3.30;66.90;;;;;;5033327;28;20623;-68
2023/02/15 00:19:03;;;;;;;0.40;0.40;;;3.30;66.40;;;;;;5033260;28;20191;-68
2023/02/15 00:21:30;;;;;;;0.30;0.30;;;3.30;65.70;;;;;;5033489;28;20178;-68
2023/02/15 00:23:57;;;;;;;0.40;0.40;;;3.30;65.50;;;;;;5033265;28;20650;-68
2023/02/15 00:26:22;;;;;;;0.30;0.30;;;3.30;65.60;;;;;;5033186;28;20193;-68
2023/02/15 00:28:48;;;;;;;0.40;0.40;;;3.30;65.70;;;;;;5033365;28;20178;-68
2023/02/15 00:31:13;;;;;;;0.40;0.40;;;3.20;65.00;;;;;;5033271;28;20205;-67
2023/02/15 00:33:39;;;;;;;0.40;0.40;;;3.30;65.60;;;;;;5033058;28;20193;-67
2023/02/15 00:36:08;;;;;;;0.40;0.40;;;3.30;65.00;;;;;;5033025;28;20170;-67
2023/02/15 00:38:34;;;;;;;0.40;0.40;;;3.30;65.50;;;;;;5033217;28;20174;-68
2023/02/15 00:41:02;;;;;;;0.40;0.40;;;3.30;66.90;;;;;;5033259;28;20175;-68
2023/02/15 00:43:29;;;;;;;0.40;0.40;;;3.20;67.70;;;;;;5032815;28;20221;-68
2023/02/15 00:45:55;;;;;;;0.50;0.50;;;3.20;67.50;;;;;;5032867;28;20179;-68
2023/02/15 00:48:21;;;;;;;0.40;0.40;;;3.30;66.60;;;;;;5033077;28;20539;-68
2023/02/15 00:50:53;;;;;;;0.30;0.30;;;3.30;64.10;;;;;;5033173;28;20251;-68
2023/02/15 00:53:19;;;;;;;0.40;0.40;;;3.50;63.10;;;;;;5032913;28;20428;-67
2023/02/15 00:55:44;;;;;;;0.40;0.40;;;3.50;62.70;;;;;;5032776;28;20182;-68
2023/02/15 00:58:11;;;;;;;1.57;1.47;;;3.50;63.40;;;;;;5031648;28;20418;-68
2023/02/15 01:00:38;;;;;;;0.35;0.35;;;3.50;64.40;;;;;;5032959;28;20507;-68
2023/02/15 01:03:04;;;;;;;1.13;1.02;;;3.40;63.70;;;;;;5032832;28;20195;-67
2023/02/15 01:05:32;;;;;;;0.40;0.40;;;3.50;62.40;;;;;;5033096;28;20173;-68
2023/02/15 01:07:58;;;;;;;0.40;0.40;;;3.60;61.70;;;;;;5032740;28;20175;-68
2023/02/15 01:10:23;;;;;;;0.30;0.30;;;3.60;63.10;;;;;;5033012;28;20550;-68
2023/02/15 01:12:51;;;;;;;0.40;0.40;;;3.60;63.10;;;;;;5032683;28;20769;-68
2023/02/15 01:15:17;;;;;;;0.50;0.50;;;3.50;64.20;;;;;;5033176;28;20889;-68
2023/02/15 01:17:45;;;;;;;0.60;0.60;;;3.40;64.80;;;;;;5032657;28;20171;-67
2023/02/15 01:20:12;;;;;;;0.40;0.40;;;3.30;65.30;;;;;;5032767;28;20209;-68
2023/02/15 01:22:38;;;;;;;0.30;0.30;;;3.30;65.90;;;;;;5032711;28;20240;-68
2023/02/15 01:25:04;;;;;;;0.30;0.30;;;3.30;66.00;;;;;;5033236;28;20182;-68
2023/02/15 01:27:32;;;;;;;0.30;0.30;;;3.30;65.40;;;;;;5036142;28;20493;-67
2023/02/15 01:29:58;;;;;;;1.05;0.55;;;3.30;64.70;;;;;;5036476;28;20540;-68
2023/02/15 01:32:23;;;;;;;0.53;0.53;;;3.30;64.70;;;;;;5034806;28;20207;-68
2023/02/15 01:34:49;;;;;;;0.50;0.50;;;3.30;65.30;;;;;;5036115;28;20167;-67
2023/02/15 01:37:15;;;;;;;0.40;0.40;;;3.30;65.40;;;;;;5036000;28;20213;-67
2023/02/15 01:39:40;;;;;;;0.80;0.80;;;3.20;65.40;;;;;;5036241;28;20236;-68
2023/02/15 01:42:10;;;;;;;0.37;0.37;;;3.30;65.20;;;;;;5035991;28;20333;-67
2023/02/15 01:44:55;;;;;;;0.63;0.50;;;3.30;64.20;;;;;;5035954;28;20190;-68
2023/02/15 01:47:45;;;;;;;0.50;0.50;;;3.30;64.10;;;;;;5036040;28;20300;-68
2023/02/15 01:50:22;;;;;;;0.52;0.52;;;3.30;64.80;;;;;;5036312;28;20525;-68
2023/02/15 01:53:08;;;;;;;0.40;0.40;;;3.30;66.00;;;;;;5035836;28;20199;-67
2023/02/15 01:55:39;;;;;;;0.40;0.40;;;3.10;66.00;;;;;;5035613;28;20190;-67
2023/02/15 01:58:06;;;;;;;0.40;0.40;;;3.10;67.50;;;;;;5035815;28;20224;-68
2023/02/15 02:00:33;;;;;;;0.40;0.40;;;3.10;67.50;;;;;;5035813;28;20175;-68
2023/02/15 02:03:00;;;;;;;0.60;0.60;;;3.10;66.90;;;;;;5035581;28;20201;-68
2023/02/15 02:05:26;;;;;;;0.50;0.50;;;3.20;66.70;;;;;;5035983;28;20178;-68
2023/02/15 02:07:55;;;;;;;0.30;0.30;;;3.20;65.90;;;;;;5035551;28;20175;-67
2023/02/15 02:10:23;;;;;;;0.30;0.30;;;3.10;65.50;;;;;;5035765;28;20175;-67
2023/02/15 02:12:53;;;;;;;0.57;0.57;;;3.10;65.30;;;;;;5035548;28;20618;-68
2023/02/15 02:15:25;;;;;;;0.90;0.60;;;3.20;65.00;;;;;;5035674;28;20178;-67
2023/02/15 02:18:34;;;;;;;0.30;0.30;;;3.20;63.90;;;;;;5035372;28;20163;-68
2023/02/15 02:21:08;;;;;;;0.40;0.40;;;3.10;64.30;;;;;;5027023;28;20196;-68
2023/02/15 02:24:23;;;;;;;0.30;0.30;;;3.10;66.20;;;;;;5035235;28;20671;-68
2023/02/15 02:27:07;;;;;;;0.50;0.50;;;3.10;66.20;;;;;;5026868;28;20191;-68
2023/02/15 02:30:04;;;;;;;0.40;0.40;;;3.00;65.40;;;;;;5034071;28;20189;-68
2023/02/15 02:33:13;;;;;;;0.40;0.40;;;3.00;64.40;;;;;;5032747;28;20222;-67
2023/02/15 02:35:44;;;;;;;0.40;0.40;;;3.00;64.00;;;;;;5035298;28;20202;-68
2023/02/15 02:38:52;;;;;;;1.10;1.08;;;3.00;64.10;;;;;;5034543;28;20167;-68
2023/02/15 02:41:32;;;;;;;0.40;0.40;;;3.00;65.00;;;;;;5035039;28;20253;-68
2023/02/15 02:44:18;;;;;;;0.50;0.50;;;2.90;67.40;;;;;;5034835;28;20193;-68
2023/02/15 02:47:03;;;;;;;1.60;0.80;;;2.80;68.30;;;;;;5034873;28;20253;-68
2023/02/15 02:49:38;;;;;;;0.40;0.40;;;2.80;68.30;;;;;;5034875;28;20186;-67
2023/02/15 02:52:35;;;;;;;0.30;0.30;;;2.80;67.40;;;;;;5034554;28;20562;-68
2023/02/15 02:55:05;;;;;;;0.57;0.57;;;2.90;64.70;;;;;;5034943;28;20185;-68
2023/02/15 02:57:34;;;;;;;0.40;0.40;;;2.90;64.90;;;;;;5034764;28;20170;-68
2023/02/15 03:00:03;;;;;;;0.30;0.30;;;2.90;65.20;;;;;;5034689;28;20225;-67
2023/02/15 03:02:34;;;;;;;0.40;0.40;;;2.90;65.30;;;;;;5034477;28;20189;-68
2023/02/15 03:05:06;;;;;;;0.30;0.30;;;3.00;64.60;;;;;;5034517;28;20651;-67
2023/02/15 03:07:34;;;;;;;0.30;0.30;;;3.00;64.90;;;;;;5034485;28;20658;-68
2023/02/15 03:10:03;;;;;;;0.30;0.30;;;3.00;65.50;;;;;;5033149;28;20647;-68
2023/02/15 03:12:32;;;;;;;0.30;0.30;;;2.90;64.80;;;;;;5033063;28;20291;-67
2023/02/15 03:15:14;;;;;;;0.40;0.40;;;2.90;64.30;;;;;;5034177;28;20647;-68
2023/02/15 03:17:46;;;;;;;0.30;0.30;;;3.00;64.80;;;;;;5034516;28;20179;-68
2023/02/15 03:20:28;;;;;;;0.30;0.30;;;2.90;64.40;;;;;;5034461;28;20180;-68
2023/02/15 03:22:59;;;;;;;0.30;0.30;;;2.90;64.00;;;;;;5034138;28;20197;-68
2023/02/15 03:25:33;;;;;;;0.40;0.40;;;2.90;63.90;;;;;;5034272;28;20540;-68
2023/02/15 03:28:04;;;;;;;0.30;0.30;;;2.90;64.40;;;;;;5034073;28;20166;-68
2023/02/15 03:30:34;;;;;;;0.30;0.30;;;2.90;65.40;;;;;;5033994;28;20512;-68
2023/02/15 03:33:02;;;;;;;1.15;0.95;;;2.80;66.90;;;;;;5033891;28;20194;-67
2023/02/15 03:35:38;;;;;;;0.40;0.40;;;2.90;67.50;;;;;;5034028;28;20179;-68
2023/02/15 03:38:07;;;;;;;0.63;0.63;;;2.90;67.20;;;;;;5033931;28;20171;-67
2023/02/15 03:43:43;;;;;;;0.60;0.60;;;2.90;65.90;;;;;;5033801;28;20297;-68
2023/02/15 03:46:15;;;;;;;0.35;0.35;;;2.90;65.30;;;;;;5033806;28;20211;-68
2023/02/15 03:48:45;;;;;;;0.30;0.30;;;2.80;63.60;;;;;;5033613;28;20175;-67
2023/02/15 03:51:36;;;;;;;0.30;0.30;;;2.90;62.40;;;;;;5032385;28;20621;-68
2023/02/15 03:54:08;;;;;;;0.30;0.30;;;2.80;62.20;;;;;;5033820;28;20229;-68
2023/02/15 03:56:40;;;;;;;0.40;0.40;;;2.80;62.80;;;;;;5033597;28;20169;-68
2023/02/15 04:01:58;;;;;;;0.30;0.30;;;2.80;62.80;;;;;;5033519;28;20201;-68
2023/02/15 04:04:41;;;;;;;0.40;0.40;;;2.80;62.40;;;;;;5033537;28;20158;-68
2023/02/15 04:07:08;;;;;;;0.40;0.40;;;2.80;60.80;;;;;;5033314;28;20228;-68
2023/02/15 04:12:17;;;;;;;0.40;0.40;;;2.90;64.10;;;;;;5033521;28;20655;-67
2023/02/15 04:17:28;;;;;;;0.60;0.60;;;2.90;64.50;;;;;;5033194;28;20209;-68
2023/02/15 04:25:21;;;;;;;0.30;0.30;;;2.90;65.10;;;;;;5033656;28;20551;-67
2023/02/15 04:27:49;;;;;;;0.30;0.30;;;2.90;64.50;;;;;;5033209;28;20177;-67
2023/02/15 04:30:18;;;;;;;1.13;1.13;;;3.00;64.10;;;;;;5033337;28;20173;-68
2023/02/15 04:32:43;;;;;;;1.00;1.00;;;3.00;63.80;;;;;;5031877;28;20218;-68
2023/02/15 04:35:09;;;;;;;0.40;0.40;;;2.90;63.00;;;;;;5033195;28;20531;-68
2023/02/15 04:37:35;;;;;;;0.30;0.30;;;2.90;62.60;;;;;;5033011;28;20180;-68
2023/02/15 04:40:02;;;;;;;0.47;0.47;;;2.90;61.70;;;;;;5033216;28;20236;-67
2023/02/15 04:42:28;;;;;;;0.30;0.30;;;2.90;61.00;;;;;;5033011;28;20980;-68
2023/02/15 04:44:54;;;;;;;0.30;0.30;;;2.90;60.10;;;;;;5032947;28;20229;-68
2023/02/15 04:47:20;;;;;;;0.40;0.40;;;2.90;61.80;;;;;;5032884;28;20833;-66
2023/02/15 04:49:45;;;;;;;0.70;0.70;;;2.90;63.90;;;;;;5033036;28;20182;-68
2023/02/15 04:52:11;;;;;;;0.40;0.40;;;2.90;64.70;;;;;;5032831;28;20548;-68
2023/02/15 04:54:37;;;;;;;0.30;0.30;;;2.90;65.60;;;;;;5033074;28;20170;-68
2023/02/15 04:57:04;;;;;;;0.30;0.30;;;2.80;65.50;;;;;;5032847;28;20853;-68
2023/02/15 04:59:30;;;;;;;0.40;0.40;;;2.90;64.80;;;;;;5033113;28;20175;-68
2023/02/15 05:01:56;;;;;;;0.30;0.30;;;2.90;63.60;;;;;;5036490;28;20198;-68
2023/02/15 05:04:22;;;;;;;0.93;0.93;;;2.90;63.50;;;;;;5036814;28;20169;-68
2023/02/15 05:06:48;;;;;;;0.30;0.30;;;2.90;63.30;;;;;;5036673;28;20662;-68
2023/02/15 05:09:13;;;;;;;0.30;0.30;;;2.90;62.90;;;;;;5035862;28;20223;-68
2023/02/15 05:11:39;;;;;;;0.40;0.40;;;2.90;62.70;;;;;;5036756;28;20237;-68
2023/02/15 05:14:05;;;;;;;0.40;0.40;;;2.90;63.70;;;;;;5036531;28;20437;-68
2023/02/15 05:16:31;;;;;;;0.40;0.40;;;2.80;64.40;;;;;;5036669;28;20198;-67
2023/02/15 05:18:56;;;;;;;0.40;0.40;;;2.80;65.30;;;;;;5036744;28;20456;-67
2023/02/15 05:21:22;;;;;;;0.33;0.33;;;2.80;66.60;;;;;;5036628;28;20405;-68
2023/02/15 05:23:48;;;;;;;0.70;0.70;;;2.90;65.70;;;;;;5036455;28;20174;-68
2023/02/15 05:29:02;;;;;;;0.32;0.32;;;2.80;65.50;;;;;;5036507;28;20228;-68
2023/02/15 05:31:28;;;;;;;0.30;0.30;;;2.80;65.70;;;;;;5036067;28;20297;-67
2023/02/15 05:33:53;;;;;;;0.50;0.50;;;2.80;65.40;;;;;;5036350;28;20257;-67
2023/02/15 05:36:19;;;;;;;0.40;0.40;;;2.80;65.30;;;;;;5036211;28;20319;-68
2023/02/15 05:38:45;;;;;;;5.70;2.97;;;2.80;65.50;;;;;;5036293;28;20167;-68
2023/02/15 05:41:11;;;;;;;0.30;0.30;;;2.80;65.90;;;;;;5036339;28;20539;-68
2023/02/15 05:43:37;;;;;;;1.30;1.30;;;2.80;63.90;;;;;;5035858;28;20697;-68
2023/02/15 05:46:04;;;;;;;0.40;0.40;;;2.80;62.70;;;;;;5035724;28;20213;-68
2023/02/15 05:48:30;;;;;;;0.30;0.30;;;2.80;62.30;;;;;;5036165;28;20542;-67
2023/02/15 05:51:03;;;;;;;0.30;0.30;;;2.90;63.10;;;;;;5035984;28;20213;-66
2023/02/15 05:53:31;;;;;;;0.30;0.30;;;2.90;63.30;;;;;;5035865;28;20246;-67
2023/02/15 05:56:01;;;;;;;0.30;0.30;;;2.90;64.20;;;;;;5034575;28;20210;-67
2023/02/15 05:58:29;;;;;;;0.40;0.40;;;2.90;65.40;;;;;;5036055;28;20549;-67
2023/02/15 06:00:55;;;;;;;0.90;0.90;;;2.90;66.60;;;;;;5035615;28;20189;-67
2023/02/15 06:03:21;;;;;;;0.40;0.40;;;2.80;67.10;;;;;;5035664;28;20195;-68
2023/02/15 06:05:47;;;;;;;0.40;0.40;;;2.80;67.40;;;;;;5035606;28;20232;-68
2023/02/15 06:08:12;;;;;;;0.40;0.40;;;2.80;67.30;;;;;;5035788;28;20174;-68
2023/02/15 06:10:39;;;;;;;0.37;0.37;;;2.80;67.70;;;;;;5035826;28;20174;-68
2023/02/15 06:13:05;;;;;;;0.40;0.40;;;2.80;68.00;;;;;;5035428;28;20693;-67
2023/02/15 06:15:31;;;;;;;2.23;2.13;;;2.80;68.30;;;;;;5035586;28;20179;-67
2023/02/15 06:17:57;;;;;;;0.40;0.40;;;2.80;68.20;;;;;;5035363;28;20559;-68
2023/02/15 06:20:23;;;;;;;0.40;0.40;;;2.80;67.70;;;;;;5035582;28;20412;-68
2023/02/15 06:22:48;;;;;;;0.30;0.30;;;2.80;67.40;;;;;;5035234;28;20516;-68
2023/02/15 06:25:14;;;;;;;0.40;0.40;;;2.80;67.40;;;;;;5035258;28;20547;-68
2023/02/15 06:27:41;;;;;;;0.40;0.40;;;2.70;68.00;;;;;;5035105;28;20182;-68
2023/02/15 06:30:08;;;;;;;2.35;0.57;;;2.70;68.40;;;;;;5035154;28;20201;-68
2023/02/15 06:32:33;;;;;;;0.30;0.30;;;2.70;68.80;;;;;;5035240;28;20257;-68
2023/02/15 06:34:59;;;;;;;0.30;0.30;;;2.70;69.90;;;;;;5035026;28;20587;-68
2023/02/15 06:37:24;;;;;;;0.30;0.30;;;2.60;69.90;;;;;;5033748;28;20178;-69
2023/02/15 06:39:50;;;;;;;0.40;0.40;;;2.60;70.10;;;;;;5033313;28;20273;-68
2023/02/15 06:42:17;;;;;;;0.30;0.30;;;2.70;71.20;;;;;;5035295;28;20216;-67
2023/02/15 06:44:44;;;;;;;0.80;0.80;;;2.90;83.40;;;;;;5033455;28;20182;-67
2023/02/15 06:47:10;;;;;;;0.40;0.40;;;3.80;96.80;;;;;;5035159;28;20228;-67
2023/02/15 06:49:36;;;;;;;1.90;1.80;;;4.60;87.90;;;;;;5034751;28;20178;-67
2023/02/15 06:52:02;;;;;;;0.30;0.30;;;4.70;77.10;;;;;;5033900;28;20207;-69
2023/02/15 06:54:28;;;;;;;0.40;0.40;;;4.60;73.00;;;;;;5033839;28;20179;-69
2023/02/15 06:56:53;;;;;;;0.30;0.30;;;4.50;71.10;;;;;;5034444;28;20421;-67
2023/02/15 06:59:19;;;;;;;0.40;0.40;;;4.30;69.60;;;;;;5034791;28;20178;-68
2023/02/15 07:01:44;;;;;;;0.40;0.40;;;4.10;69.70;;;;;;5034549;28;20195;-67
2023/02/15 07:04:10;;;;;;;0.40;0.40;;;3.90;70.30;;;;;;5034506;28;20170;-67
2023/02/15 07:06:36;;;;;;;0.30;0.30;;;3.70;78.70;;;;;;5033871;28;20175;-68
2023/02/15 07:09:02;;;;;;;0.40;0.40;;;3.80;98.20;;;;;;5033241;28;20202;-69
2023/02/15 07:14:13;;;;;;;0.65;0.65;;;;;;;;;;5035077;28;20213;-67
2023/02/15 07:16:39;;;;;;;2.92;2.83;;;3.50;99.50;;;;;;5034331;28;20171;-68
2023/02/15 07:19:05;;;;;;;0.40;0.40;;;3.40;99.50;;;;;;5034641;28;20175;-69
2023/02/15 07:21:30;;;;;;;1.47;1.37;;;3.50;91.60;;;;;;5034156;28;20240;-69
2023/02/15 07:24:00;;;;;;;0.50;0.50;;;3.40;99.90;;;;;;5033578;28;20220;-69
2023/02/15 07:26:25;;;;;;;0.40;0.40;;;3.40;93.30;;;;;;5032582;28;20226;-70
2023/02/15 07:28:51;;;;;;;0.33;0.33;;;3.40;74.50;;;;;;5034181;28;20608;-70
2023/02/15 07:31:17;;;;;;;0.40;0.40;;;3.40;74.10;;;;;;5034344;28;20202;-69
2023/02/15 07:33:43;;;;;;;0.30;0.30;;;3.40;74.40;;;;;;5034553;28;20191;-67
2023/02/15 07:36:11;;;;;;;0.40;0.40;;;3.50;74.60;;;;;;5034204;28;20430;-69
2023/02/15 07:38:39;;;;;;;0.50;0.50;;;3.60;73.80;;;;;;5034100;28;20217;-68
2023/02/15 07:41:08;;;;;;;0.68;0.68;;;3.60;73.30;;;;;;5034012;28;20228;-69
2023/02/15 07:43:35;;;;;;;0.40;0.40;;;3.70;74.50;;;;;;5033902;28;20232;-69
2023/02/15 07:46:04;;;;;;;0.60;0.60;;;3.70;74.80;;;;;;5034180;28;20556;-69
2023/02/15 07:48:30;;;;;;;0.57;0.57;;;3.70;75.30;;;;;;5034014;28;20242;-68
2023/02/15 07:51:03;;;;;;;0.40;0.40;;;4.40;78.20;;;;;;5033626;28;20173;-69
2023/02/15 07:53:29;;;;;;;0.90;0.90;;;6.30;78.00;;;;;;5033574;28;20193;-69
2023/02/15 07:56:02;;;;;;;0.40;0.40;;;8.90;71.70;;;;;;5033809;28;20182;-70
2023/02/15 08:01:13;;;;;;;0.50;0.50;;;13.80;53.50;;;;;;5033614;28;20408;-71
2023/02/15 08:03:39;;;;;;;0.40;0.40;;;15.70;47.20;;;;;;5033630;28;20436;-70
2023/02/15 08:06:05;;;;;;;1.37;1.27;;;17.10;44.40;;;;;;5033505;28;20496;-70
2023/02/15 08:08:33;;;;;;;2.10;0.83;;;18.20;41.60;;;;;;5033733;28;20174;-70
2023/02/15 08:13:55;;;;;;;1.33;1.23;;;19.80;35.60;;;;;;5031884;28;20905;-71
2023/02/15 08:16:32;;;;;;;0.70;0.57;;;20.40;34.50;;;;;;5033275;28;20384;-69
2023/02/15 08:18:59;;;;;;;0.40;0.40;;;20.90;34.20;;;;;;5033489;28;20463;-69
2023/02/15 08:21:27;;;;;;;0.60;0.60;;;21.30;33.40;;;;;;5033281;28;20428;-69
2023/02/15 08:23:54;;;;;;;0.50;0.50;;;21.70;32.50;;;;;;5033171;28;20410;-69
2023/02/15 08:26:20;;;;;;;0.70;0.70;;;22.00;31.60;;;;;;5032984;28;20413;-69
2023/02/15 08:28:46;;;;;;;1.60;0.73;;;22.50;31.50;;;;;;5032119;28;20410;-70
2023/02/15 08:31:13;;;;;;;0.70;0.50;;;23.00;31.20;;;;;;5033059;28;20491;-70
2023/02/15 08:33:42;;;;;;;0.80;0.70;;;23.50;30.20;;;;;;5033618;28;20802;-70
2023/02/15 08:36:14;;;;;;;0.40;0.40;;;24.10;29.70;;;;;;5034653;28;20467;-70
2023/02/15 08:38:40;;;;;;;0.53;0.53;;;24.90;29.30;;;;;;5037366;28;20406;-70
2023/02/15 08:41:24;;;;;;;1.47;1.27;;;25.50;29.00;;;;;;5037352;28;20409;-69
2023/02/15 08:43:53;;;;;;;0.60;0.60;;;26.10;28.50;;;;;;5037090;28;20519;-70
2023/02/15 08:46:20;;;;;;;0.67;0.67;;;26.60;28.10;;;;;;5037366;28;20960;-71
2023/02/15 08:48:46;;;;;;;0.67;0.67;;;27.10;27.70;;;;;;5037664;28;20406;-72
2023/02/15 08:51:13;;;;;;;1.13;1.00;;;27.60;27.10;;;;;;5037034;28;20449;-72
2023/02/15 08:53:41;;;;;;;0.90;0.90;;;27.70;26.80;;;;;;5037145;28;20187;-71
2023/02/15 08:56:08;;;;;;;1.60;1.40;;;27.90;26.90;;;;;;5037097;28;20406;-71
2023/02/15 08:58:34;;;;;;;1.70;1.20;;;27.90;26.60;;;;;;5036930;28;20770;-71
2023/02/15 09:01:02;;;;;;;1.40;1.17;;;27.90;26.70;;;;;;5037528;28;20799;-71
2023/02/15 09:03:28;;;;;;;2.10;1.20;;;27.70;26.60;;;;;;5036769;28;20429;-70
2023/02/15 09:06:01;;;;;;;1.33;1.13;;;27.50;26.70;;;;;;5036775;28;20405;-70
2023/02/15 09:08:27;;;;;;;1.63;1.40;;;27.00;27.20;;;;;;5036996;28;20413;-71
2023/02/15 09:10:54;;;;;;;2.37;2.10;;;26.50;27.50;;;;;;5037060;28;20413;-71
2023/02/15 09:13:20;;;;;;;3.03;2.00;;;26.10;28.10;;;;;;5036936;28;20483;-71
2023/02/15 09:15:46;;;;;;;3.17;2.17;;;25.90;28.00;;;;;;5036793;28;20409;-70
2023/02/15 09:18:16;;;;;;;4.50;3.23;;;26.00;28.50;;;;;;5036528;28;20404;-71
2023/02/15 09:20:43;;;;;;;6.70;2.60;;;26.40;27.70;;;;;;5036726;28;20167;-71
2023/02/15 09:23:09;;;;;;;1.10;0.93;;;26.90;27.40;;;;;;5036610;28;20483;-71
2023/02/15 09:25:34;;;;;;;0.70;0.63;;;27.50;26.50;;;;;;5036822;28;20794;-71
2023/02/15 09:28:00;;;;;;;0.80;0.80;;;28.10;25.90;;;;;;5036553;28;20189;-69
2023/02/15 09:30:25;;;;;;;1.37;1.27;;;28.40;23.90;;;;;;5036940;28;20175;-70
2023/02/15 09:32:51;;;;;;;2.83;1.20;;;28.70;24.20;;;;;;5036254;28;20664;-68
2023/02/15 09:35:17;;;;;;;1.60;1.17;;;29.30;24.90;;;;;;5036562;28;20171;-69
2023/02/15 09:37:42;;;;;;;0.50;0.50;;;29.80;24.90;;;;;;5036438;28;20222;-68
2023/02/15 09:40:11;;;;;;;0.93;0.83;;;30.20;24.00;;;;;;5036542;28;20654;-68
2023/02/15 09:43:30;;;;;;;0.97;0.57;;;30.40;23.10;;;;;;5036026;28;20199;-70
2023/02/15 09:46:25;;;;;;;3.43;0.70;;;30.80;23.50;;;;;;5023407;28;20425;-70
2023/02/15 09:49:05;;;;;;;1.60;1.00;;;31.20;23.70;;;;;;5036637;28;20402;-71
2023/02/15 09:51:33;;;;;;;1.80;1.70;;;31.50;23.40;;;;;;5035936;28;20752;-69
2023/02/15 09:54:22;;;;;;;0.83;0.63;;;31.60;22.90;;;;;;5036097;28;20452;-68
2023/02/15 09:56:55;;;;;;;1.03;0.77;;;31.60;23.20;;;;;;5034488;28;20504;-69
2023/02/15 09:59:38;;;;;;;0.70;0.50;;;31.50;23.40;;;;;;5036241;28;20404;-69
2023/02/15 10:02:16;;;;;;;0.67;0.60;;;31.40;23.00;;;;;;5035764;28;20547;-68
2023/02/15 10:05:12;;;;;;;0.40;0.40;;;31.30;23.30;;;;;;5035985;28;20404;-68
2023/02/15 10:08:09;;;;;;;0.60;0.60;;;31.20;23.60;;;;;;5035699;28;20766;-69
2023/02/15 10:10:47;;;;;;;0.60;0.60;;;31.10;23.70;;;;;;5035781;28;20398;-68
2023/02/15 10:13:25;;;;;;;0.60;0.60;;;31.10;23.80;;;;;;5035847;28;20429;-69
2023/02/15 10:15:55;;;;;;;1.80;0.50;;;30.90;24.70;;;;;;5035919;28;20394;-69
2023/02/15 10:18:49;;;;;;;0.50;0.50;;;30.80;24.20;;;;;;5035714;28;20405;-69
2023/02/15 10:21:32;;;;;;;1.03;0.70;;;30.80;24.50;;;;;;5035504;28;20449;-70
2023/02/15 10:24:09;;;;;;;0.50;0.50;;;30.70;25.10;;;;;;5035670;28;20406;-70
2023/02/15 10:26:44;;;;;;;1.23;0.83;;;30.40;23.70;;;;;;5035397;28;20405;-70
2023/02/15 10:29:31;;;;;;;0.50;0.40;;;30.20;24.70;;;;;;5035375;28;20428;-68
2023/02/15 10:32:22;;;;;;;0.60;0.60;;;30.00;24.60;;;;;;5035081;28;20429;-68
2023/02/15 10:34:57;;;;;;;1.43;0.67;;;29.70;24.50;;;;;;5032406;28;20768;-68
2023/02/15 10:37:49;;;;;;;0.70;0.63;;;29.50;24.30;;;;;;5034810;28;20523;-68
2023/02/15 10:40:44;;;;;;;0.70;0.63;;;29.10;25.50;;;;;;5035070;28;20405;-68
2023/02/15 10:43:36;;;;;;;0.50;0.50;;;28.60;25.10;;;;;;5022799;28;20535;-68
2023/02/15 10:46:33;;;;;;;0.53;0.53;;;28.30;23.90;;;;;;5034766;28;20437;-68
2023/02/15 10:49:28;;;;;;;1.03;0.60;;;27.90;24.00;;;;;;5034954;28;20428;-68
2023/02/15 10:52:03;;;;;;;0.67;0.40;;;27.40;24.40;;;;;;5034887;28;20433;-68
2023/02/15 10:54:56;;;;;;;0.40;0.40;;;27.00;23.60;;;;;;5034946;28;20401;-68
2023/02/15 10:57:50;;;;;;;0.63;0.40;;;26.40;23.70;;;;;;5034174;28;20460;-70
2023/02/15 11:00:27;;;;;;;1.27;1.20;;;25.90;24.80;;;;;;5031603;28;20422;-70
2023/02/15 11:02:58;;;;;;;0.40;0.40;;;25.20;25.00;;;;;;5034622;28;20498;-70
2023/02/15 11:05:59;;;;;;;0.50;0.50;;;24.70;25.70;;;;;;5034714;28;20416;-68
2023/02/15 11:08:26;;;;;;;0.40;0.40;;;24.00;25.40;;;;;;5034297;28;20397;-67
2023/02/15 11:10:56;;;;;;;0.40;0.40;;;23.40;25.90;;;;;;5033955;28;20482;-67
2023/02/15 11:13:27;;;;;;;0.40;0.40;;;22.80;27.30;;;;;;5033669;28;20509;-70
2023/02/15 11:16:05;;;;;;;0.40;0.40;;;22.00;28.40;;;;;;5034548;28;20460;-70
2023/02/15 11:18:45;;;;;;;0.77;0.77;;;21.40;29.80;;;;;;5034299;28;20426;-70
2023/02/15 11:21:28;;;;;;;1.17;1.07;;;20.80;28.80;;;;;;5032989;28;20520;-69
2023/02/15 11:23:55;;;;;;;0.80;0.73;;;20.30;28.90;;;;;;5034586;28;20504;-69
2023/02/15 11:26:33;;;;;;;1.40;0.93;;;19.80;28.30;;;;;;5034208;28;20409;-70
2023/02/15 11:29:19;;;;;;;0.50;0.47;;;19.40;29.30;;;;;;5034768;28;20409;-71
2023/02/15 11:31:48;;;;;;;0.40;0.40;;;19.00;28.10;;;;;;5034309;28;20896;-70
2023/02/15 11:34:23;;;;;;;0.40;0.40;;;18.80;28.40;;;;;;5034342;28;20417;-70
2023/02/15 11:36:52;;;;;;;0.60;0.60;;;18.40;28.80;;;;;;5032647;28;20427;-69
2023/02/15 11:39:20;;;;;;;0.57;0.57;;;18.10;28.70;;;;;;5034567;28;20419;-70
2023/02/15 11:42:14;;;;;;;0.77;0.77;;;17.90;28.90;;;;;;5033900;28;20474;-69
2023/02/15 11:45:00;;;;;;;0.57;0.57;;;17.80;29.20;;;;;;5033903;28;20434;-69
2023/02/15 11:47:25;;;;;;;0.50;0.50;;;17.70;30.20;;;;;;5033865;28;20878;-72
2023/02/15 11:49:51;;;;;;;0.97;0.80;;;17.60;31.50;;;;;;5034480;28;20464;-72
2023/02/15 11:52:18;;;;;;;0.83;0.60;;;17.50;29.60;;;;;;5032338;28;20202;-72
2023/02/15 11:54:50;;;;;;;0.50;0.50;;;17.50;31.30;;;;;;5033677;28;20186;-72
2023/02/15 11:57:26;;;;;;;0.50;0.50;;;17.50;33.10;;;;;;5033549;28;20412;-67
2023/02/15 12:00:05;;;;;;;4.40;0.93;;;17.30;31.20;;;;;;5033674;28;20466;-67
2023/02/15 12:02:33;;;;;;;2.07;0.87;;;17.20;30.10;;;;;;5033556;28;20461;-67
2023/02/15 12:05:09;;;;;;;0.90;0.90;;;17.30;31.30;;;;;;5033650;28;20467;-67
2023/02/15 12:07:40;;;;;;;0.50;0.50;;;17.30;30.10;;;;;;5033715;28;20494;-67
2023/02/15 12:10:34;;;;;;;0.53;0.53;;;17.20;29.50;;;;;;5033808;28;20402;-68
2023/02/15 12:13:19;;;;;;;0.50;0.50;;;17.20;29.80;;;;;;5033781;28;20425;-70
2023/02/15 12:15:54;;;;;;;1.17;0.60;;;17.20;31.00;;;;;;5032107;28;20444;-70
2023/02/15 12:18:44;;;;;;;0.40;0.40;;;17.10;30.30;;;;;;5033431;28;20420;-68
2023/02/15 12:21:16;;;;;;;0.70;0.70;;;17.00;30.00;;;;;;5033469;28;20449;-69
2023/02/15 12:23:50;;;;;;;1.03;0.60;;;16.90;31.30;;;;;;5031776;28;20428;-70
2023/02/15 12:26:28;;;;;;;0.50;0.50;;;16.80;32.70;;;;;;5033037;28;20462;-69
2023/02/15 12:28:57;;;;;;;0.40;0.40;;;16.60;31.50;;;;;;5032196;28;20418;-69
2023/02/15 12:31:38;;;;;;;1.00;1.00;;;16.50;31.60;;;;;;5033355;28;20488;-70
2023/02/15 12:34:16;;;;;;;0.50;0.50;;;16.50;32.90;;;;;;5033442;28;20408;-69
2023/02/15 12:36:46;;;;;;;0.60;0.60;;;16.40;32.70;;;;;;5032176;28;20591;-69
2023/02/15 12:39:11;;;;;;;0.30;0.30;;;16.30;32.10;;;;;;5033346;28;20468;-69
2023/02/15 12:41:39;;;;;;;1.00;0.70;;;16.20;32.90;;;;;;5031539;28;20445;-70
2023/02/15 12:44:18;;;;;;;0.70;0.70;;;16.10;32.30;;;;;;5033186;28;20190;-69
2023/02/15 12:47:16;;;;;;;2.30;0.77;;;16.10;33.10;;;;;;5033309;28;20455;-70
2023/02/15 12:49:43;;;;;;;1.87;1.50;;;16.00;33.00;;;;;;5033456;28;20420;-69
2023/02/15 12:52:19;;;;;;;0.40;0.40;;;15.90;33.10;;;;;;5033522;28;20522;-67
2023/02/15 12:54:44;;;;;;;0.43;0.43;;;15.90;34.30;;;;;;5031811;28;20937;-67
2023/02/15 12:57:21;;;;;;;0.50;0.50;;;15.80;33.90;;;;;;5032990;28;20408;-67
2023/02/15 12:59:54;;;;;;;0.60;0.60;;;15.70;33.80;;;;;;5033353;28;20177;-67
2023/02/15 13:02:34;;;;;;;0.57;0.57;;;15.50;33.50;;;;;;5033037;28;21007;-67
2023/02/15 13:05:25;;;;;;;1.07;1.00;;;15.30;33.70;;;;;;5033274;28;20400;-67
2023/02/15 13:07:55;;;;;;;1.83;1.73;;;15.20;33.40;;;;;;5033068;28;20460;-67
2023/02/15 13:10:49;;;;;;;0.60;0.60;;;15.10;33.90;;;;;;5033265;28;20430;-67
2023/02/15 13:13:21;;;;;;;0.73;0.70;;;14.90;34.40;;;;;;5028590;28;21013;-69
2023/02/15 13:15:50;;;;;;;0.50;0.50;;;14.70;34.10;;;;;;5032920;28;20489;-69
2023/02/15 13:18:23;;;;;;;0.37;0.37;;;14.60;34.40;;;;;;5033036;28;20434;-71
2023/02/15 13:20:51;;;;;;;1.10;1.03;;;14.50;35.80;;;;;;5033656;28;20389;-70
2023/02/15 13:23:27;;;;;;;0.50;0.50;;;14.30;34.80;;;;;;5036965;28;20521;-70
2023/02/15 13:25:59;;;;;;;0.70;0.70;;;14.20;34.70;;;;;;5036727;28;20397;-70
2023/02/15 13:28:37;;;;;;;1.17;0.60;;;14.10;34.50;;;;;;5036689;28;20389;-71
2023/02/15 13:31:02;;;;;;;1.13;1.03;;;14.00;34.40;;;;;;5036793;28;20451;-72
2023/02/15 13:33:35;;;;;;;0.63;0.63;;;13.90;34.80;;;;;;5036762;28;20809;-72
2023/02/15 13:36:07;;;;;;;0.70;0.70;;;13.90;35.10;;;;;;5036292;28;20206;-71
2023/02/15 13:39:05;;;;;;;1.90;0.60;;;13.80;35.60;;;;;;5035151;28;20416;-72
2023/02/15 13:42:06;;;;;;;0.70;0.70;;;13.80;35.60;;;;;;5024927;28;20463;-71
2023/02/15 13:44:57;;;;;;;0.87;0.50;;;13.70;35.60;;;;;;5035675;28;20431;-71
2023/02/15 13:47:34;;;;;;;0.50;0.40;;;13.60;35.70;;;;;;5036065;28;20433;-71